Main page
METAR-TAF:

METAR-TAF

Airports :

Piacenza, Italy

Piacenza Air Base

latitude: 44-55N, longitude: 009-44E, elevation: 134 m

Current weather observation

The report was made 10 hours and 31 minutes ago, at 17:55 UTC
Wind 3 kt from the Southwest
Temperature 6°C
Humidity 100%
Pressure 1017 hPa
Visibility: 5000 m
mist

METAR: LIMS 171755Z 23003KT 5000 BR NSC 06/06 Q1017 RMK SKC VIS MIN 5000 WIND THR30 23002KT WHT

Time: 05:26 (04:26 UTC)


TAF: missing

Weather observations and forecasts of more than 4000 airports (METAR and TAF reports).

The available stations are represented by yellow and red dots on the map.

Hover mouse over dot to see the name of the station.

Then click to see weather observations and forecasts.

To change the map : click on the green buttons with a black cross to zoom in, on the green button with a dash to zoom out, or on the green arrows for adjacent maps.


METAR-TAF: